Time;durP1;ratioP1;P1;durP2;ratioP2;P2;SDS_P1;SDS_P2;PMS_P1;PMS_P2;Temp;Humidity;BMP_temperature;BMP_pressure;BME280_temperature;BME280_humidity;BME280_pressure;Samples;Min_cycle;Max_cycle;Signal;HPM_P1;HPM_P2
2023/01/15 00:02:08;;;;;;;7.10;1.30;;;6.20;99.90;;;;;;4859037;29;20040;-86
2023/01/15 00:04:34;;;;;;;8.15;1.40;;;6.40;99.90;;;;;;4854772;29;20044;-86
2023/01/15 00:07:00;;;;;;;5.72;0.93;;;6.30;99.90;;;;;;4845950;29;20055;-86
2023/01/15 00:09:26;;;;;;;7.37;1.00;;;6.40;99.90;;;;;;4874636;29;20525;-86
2023/01/15 00:11:51;;;;;;;9.02;0.93;;;7.10;99.90;;;;;;4842558;29;20348;-86
2023/01/15 00:14:17;;;;;;;6.50;1.10;;;6.30;99.90;;;;;;4864291;29;20035;-86
2023/01/15 00:16:44;;;;;;;6.28;1.13;;;6.40;99.90;;;;;;4842391;29;20045;-86
2023/01/15 00:19:11;;;;;;;4.70;1.10;;;6.40;99.90;;;;;;4873600;29;20043;-86
2023/01/15 00:21:37;;;;;;;6.53;1.00;;;6.40;99.90;;;;;;4862031;29;20533;-86
2023/01/15 00:29:32;;;;;;;7.65;1.02;;;6.40;99.90;;;;;;4871120;29;20044;-86
2023/01/15 00:32:01;;;;;;;7.65;1.20;;;6.30;99.90;;;;;;4856343;29;20045;-86
2023/01/15 00:34:28;;;;;;;9.27;1.52;;;6.50;99.90;;;;;;4888002;29;20190;-86
2023/01/15 00:36:54;;;;;;;8.20;1.92;;;6.40;99.90;;;;;;4847550;29;20413;-86
2023/01/15 00:39:20;;;;;;;7.10;1.20;;;6.40;99.90;;;;;;4872399;29;20040;-86
2023/01/15 00:41:46;;;;;;;6.13;1.33;;;6.40;99.90;;;;;;4874483;29;20044;-86
2023/01/15 00:44:12;;;;;;;4.20;1.17;;;6.40;99.90;;;;;;4861674;29;20075;-86
2023/01/15 00:46:38;;;;;;;9.85;1.30;;;6.80;99.90;;;;;;4860837;29;20114;-87
2023/01/15 00:49:04;;;;;;;9.82;1.25;;;6.50;99.90;;;;;;4842491;29;20041;-87
2023/01/15 00:51:30;;;;;;;9.75;1.80;;;6.50;99.90;;;;;;4856043;29;20119;-86
2023/01/15 00:53:56;;;;;;;10.82;1.63;;;6.50;99.90;;;;;;4872057;29;20113;-86
2023/01/15 00:56:22;;;;;;;8.77;1.65;;;6.50;99.90;;;;;;4861858;29;20044;-86
2023/01/15 00:58:47;;;;;;;5.70;1.13;;;6.50;99.90;;;;;;4864180;29;20048;-86
2023/01/15 01:01:14;;;;;;;7.25;1.10;;;6.50;99.90;;;;;;4874948;29;20126;-86
2023/01/15 01:03:40;;;;;;;7.38;1.52;;;6.40;99.90;;;;;;4876628;29;20091;-86
2023/01/15 01:06:06;;;;;;;7.50;1.10;;;6.50;99.90;;;;;;4856509;29;20453;-86
2023/01/15 01:08:31;;;;;;;7.63;1.33;;;6.50;99.90;;;;;;4869969;29;20048;-86
2023/01/15 01:11:19;;;;;;;7.65;1.40;;;6.50;99.90;;;;;;4869567;29;20041;-86
2023/01/15 01:13:45;;;;;;;9.60;1.30;;;6.40;99.90;;;;;;4866792;29;20032;-86
2023/01/15 01:16:21;;;;;;;;;;;6.40;99.90;;;;;;4860812;29;20135;-86
2023/01/15 01:18:47;;;;;;;11.40;1.42;;;6.40;99.90;;;;;;4879965;29;19920;-86
2023/01/15 01:21:13;;;;;;;8.70;1.43;;;6.40;99.90;;;;;;4872764;29;20124;-85
2023/01/15 01:23:39;;;;;;;9.05;1.25;;;6.40;99.90;;;;;;4854628;29;20340;-87
2023/01/15 01:26:04;;;;;;;8.70;1.40;;;6.40;99.90;;;;;;4861125;29;20924;-86
2023/01/15 01:28:30;;;;;;;6.95;1.63;;;6.80;99.90;;;;;;4853861;29;20068;-86
2023/01/15 01:30:56;;;;;;;6.20;1.80;;;6.40;99.90;;;;;;4859375;29;20051;-86
2023/01/15 01:33:21;;;;;;;6.00;1.23;;;6.50;99.90;;;;;;4852703;29;20486;-86
2023/01/15 01:35:48;;;;;;;5.13;1.13;;;6.50;99.90;;;;;;4840433;29;20041;-86
2023/01/15 01:38:15;;;;;;;6.97;1.50;;;6.50;99.90;;;;;;4867190;29;20052;-86
2023/01/15 01:40:40;;;;;;;;;;;6.50;99.90;;;;;;4880847;29;20175;-86
2023/01/15 01:43:51;;;;;;;8.63;1.08;;;6.50;99.90;;;;;;4899393;29;19971;-86
2023/01/15 01:46:16;;;;;;;5.85;1.27;;;6.40;99.90;;;;;;4852932;29;20554;-86
2023/01/15 01:48:42;;;;;;;8.85;1.40;;;6.50;99.90;;;;;;4859519;29;20131;-86
2023/01/15 01:51:08;;;;;;;7.60;1.17;;;6.40;99.90;;;;;;4842787;29;20040;-86
2023/01/15 01:53:34;;;;;;;9.48;1.20;;;6.50;99.90;;;;;;4872079;29;20040;-86
2023/01/15 01:56:00;;;;;;;8.60;1.83;;;6.80;99.90;;;;;;4872559;29;20131;-85
2023/01/15 01:58:29;;;;;;;9.10;1.50;;;6.30;99.90;;;;;;4860976;29;20410;-86
2023/01/15 02:00:55;;;;;;;10.20;1.35;;;6.80;99.90;;;;;;4883942;29;20497;-85
2023/01/15 02:03:25;;;;;;;11.80;1.80;;;6.20;99.90;;;;;;4886294;29;20051;-86
2023/01/15 02:05:57;;;;;;;7.25;1.60;;;6.50;99.90;;;;;;4864022;29;20564;-86
2023/01/15 02:08:23;;;;;;;6.03;1.00;;;6.30;99.90;;;;;;4871798;29;20044;-85
2023/01/15 02:10:52;;;;;;;10.25;1.63;;;6.40;99.90;;;;;;4890296;29;20047;-86
2023/01/15 02:13:23;;;;;;;10.48;1.33;;;6.30;99.90;;;;;;4877128;29;20137;-85
2023/01/15 02:16:21;;;;;;;9.00;1.52;;;6.30;99.90;;;;;;4892280;29;20040;-86
2023/01/15 02:19:37;;;;;;;11.90;2.20;;;6.30;99.90;;;;;;4823928;29;20055;-86
2023/01/15 02:22:10;;;;;;;7.95;1.55;;;6.30;99.90;;;;;;4779493;29;20054;-85
2023/01/15 02:24:53;;;;;;;7.85;1.23;;;6.30;99.90;;;;;;4814666;29;20050;-86
2023/01/15 02:27:21;;;;;;;7.68;1.50;;;6.30;99.90;;;;;;4850828;29;20150;-85
2023/01/15 02:29:55;;;;;;;7.45;1.23;;;6.30;99.90;;;;;;4879468;29;20063;-85
2023/01/15 02:32:28;;;;;;;11.63;1.40;;;6.30;99.90;;;;;;4893515;29;20036;-85
2023/01/15 02:34:58;;;;;;;10.00;1.30;;;6.50;99.90;;;;;;4895251;29;20116;-86
2023/01/15 02:37:30;;;;;;;7.53;1.50;;;6.20;99.90;;;;;;4887263;29;20044;-86
2023/01/15 02:39:58;;;;;;;7.20;1.20;;;6.20;99.90;;;;;;4876913;29;20717;-86
2023/01/15 02:42:26;;;;;;;5.13;1.45;;;7.00;99.90;;;;;;4876068;29;20044;-86
2023/01/15 02:44:56;;;;;;;9.27;1.40;;;6.30;99.90;;;;;;4850904;29;20041;-85
2023/01/15 02:47:27;;;;;;;4.55;1.48;;;6.30;99.90;;;;;;4888583;29;20036;-86
2023/01/15 02:49:58;;;;;;;8.95;1.10;;;6.30;99.90;;;;;;4877259;29;20036;-85
2023/01/15 02:52:32;;;;;;;9.40;1.40;;;6.30;99.90;;;;;;4874927;29;20048;-85
2023/01/15 02:55:07;;;;;;;9.93;1.48;;;6.30;99.90;;;;;;4889233;29;20044;-85
2023/01/15 02:57:38;;;;;;;10.27;1.58;;;6.30;99.90;;;;;;4901735;29;20493;-85
2023/01/15 03:00:08;;;;;;;10.38;1.55;;;6.30;99.90;;;;;;4881751;29;20052;-86
2023/01/15 03:02:48;;;;;;;7.95;1.77;;;6.30;99.90;;;;;;4870018;29;20456;-85
2023/01/15 03:05:16;;;;;;;9.18;1.30;;;6.30;99.90;;;;;;4878899;29;20044;-85
2023/01/15 03:07:59;;;;;;;11.63;1.48;;;6.30;99.90;;;;;;4887303;29;20052;-85
2023/01/15 03:10:54;;;;;;;12.60;1.35;;;6.30;99.90;;;;;;4865517;29;20108;-85
2023/01/15 03:13:42;;;;;;;11.98;1.63;;;6.20;99.90;;;;;;4890729;29;20043;-86
2023/01/15 03:16:34;;;;;;;8.50;1.73;;;6.30;99.90;;;;;;4872273;29;20033;-86
2023/01/15 03:19:12;;;;;;;9.65;1.40;;;6.30;99.90;;;;;;4884461;29;20047;-85
2023/01/15 03:21:37;;;;;;;10.15;1.40;;;6.30;99.90;;;;;;4888441;29;20036;-85
2023/01/15 03:24:07;;;;;;;6.30;1.13;;;6.30;99.90;;;;;;4877945;29;20055;-85
2023/01/15 03:26:33;;;;;;;11.23;1.30;;;6.30;99.90;;;;;;4900007;29;20124;-86
2023/01/15 03:29:01;;;;;;;18.25;2.78;;;6.30;99.90;;;;;;4880898;29;20072;-86
2023/01/15 03:31:28;;;;;;;14.75;1.73;;;6.30;99.90;;;;;;4872635;29;20055;-85
2023/01/15 03:33:54;;;;;;;7.80;1.10;;;6.40;99.90;;;;;;4885939;29;20076;-83
2023/01/15 03:36:19;;;;;;;7.73;1.60;;;6.20;99.90;;;;;;4898497;29;20520;-85
2023/01/15 03:38:49;;;;;;;5.68;1.27;;;6.20;99.90;;;;;;4878724;29;20075;-86
2023/01/15 03:41:31;;;;;;;11.70;1.80;;;6.40;99.90;;;;;;4867099;29;20041;-85
2023/01/15 03:44:22;;;;;;;8.73;1.70;;;6.20;99.90;;;;;;4876910;29;20052;-86
2023/01/15 03:47:00;;;;;;;7.95;1.52;;;6.20;99.90;;;;;;4875882;29;20521;-86
2023/01/15 03:50:01;;;;;;;4.50;1.48;;;6.20;99.90;;;;;;4878555;29;20044;-86
2023/01/15 03:52:46;;;;;;;8.57;1.60;;;6.30;99.90;;;;;;4861504;29;20108;-85
2023/01/15 03:55:20;;;;;;;6.40;1.55;;;6.30;99.90;;;;;;4882282;29;20032;-85
2023/01/15 03:58:04;;;;;;;10.77;1.60;;;6.30;99.90;;;;;;4884432;29;20036;-85
2023/01/15 04:00:35;;;;;;;10.82;1.88;;;6.30;99.90;;;;;;4893433;29;20493;-85
2023/01/15 04:03:03;;;;;;;6.88;1.17;;;6.50;99.90;;;;;;4874787;29;20123;-85
2023/01/15 04:05:30;;;;;;;10.75;1.45;;;6.30;99.90;;;;;;4864760;29;20036;-85
2023/01/15 04:07:58;;;;;;;6.47;1.48;;;6.70;99.90;;;;;;4866655;29;20083;-86
2023/01/15 04:10:23;;;;;;;10.07;1.42;;;6.20;99.90;;;;;;4857230;29;20036;-86
2023/01/15 04:12:49;;;;;;;8.23;1.58;;;6.20;99.90;;;;;;4876875;29;20171;-85
2023/01/15 04:15:16;;;;;;;10.52;1.55;;;6.90;99.90;;;;;;4888704;29;20044;-86
2023/01/15 04:17:41;;;;;;;;;;;6.00;99.90;;;;;;4876758;29;20040;-85
2023/01/15 04:20:08;;;;;;;12.98;1.35;;;6.00;99.90;;;;;;4874970;29;20360;-85
2023/01/15 04:22:34;;;;;;;6.03;1.13;;;6.00;99.90;;;;;;4864713;29;20519;-85
2023/01/15 04:25:01;;;;;;;;;;;6.00;99.90;;;;;;4876144;29;20048;-85
2023/01/15 04:27:27;;;;;;;7.00;1.75;;;6.00;99.90;;;;;;4873994;29;20282;-85
2023/01/15 04:29:53;;;;;;;7.82;1.33;;;6.00;99.90;;;;;;4877238;29;20042;-85
2023/01/15 04:32:19;;;;;;;10.57;1.42;;;6.20;99.90;;;;;;4858604;29;20064;-85
2023/01/15 04:34:44;;;;;;;8.57;1.50;;;6.00;99.90;;;;;;4838254;29;20043;-86
2023/01/15 04:37:10;;;;;;;6.65;1.20;;;6.00;99.90;;;;;;4874412;29;20167;-85
2023/01/15 04:39:36;;;;;;;8.50;2.17;;;6.00;99.90;;;;;;4867746;29;20048;-86
2023/01/15 04:44:46;;;;;;;8.32;1.35;;;6.00;99.90;;;;;;4877814;29;20048;-85
2023/01/15 04:47:12;;;;;;;8.63;1.52;;;5.90;99.90;;;;;;4859672;29;20127;-85
2023/01/15 04:49:37;;;;;;;8.73;1.52;;;6.20;99.90;;;;;;4874034;29;20043;-86
2023/01/15 04:52:04;;;;;;;7.10;1.33;;;5.90;99.90;;;;;;4846008;29;20036;-85
2023/01/15 04:54:30;;;;;;;11.05;1.83;;;6.00;99.90;;;;;;4853774;29;20047;-85
2023/01/15 04:56:55;;;;;;;6.38;1.10;;;6.00;99.90;;;;;;4871671;29;20040;-85
2023/01/15 04:59:24;;;;;;;7.88;1.50;;;6.00;99.90;;;;;;4859257;29;20041;-85
2023/01/15 05:01:51;;;;;;;9.60;1.70;;;6.10;99.90;;;;;;4887251;29;20131;-85
2023/01/15 05:04:17;;;;;;;5.68;1.40;;;6.30;99.90;;;;;;4882408;29;20078;-85
2023/01/15 05:06:43;;;;;;;6.00;1.27;;;6.30;99.90;;;;;;4877075;29;20056;-86
2023/01/15 05:09:09;;;;;;;7.15;1.45;;;6.00;99.90;;;;;;4862548;29;20417;-86
2023/01/15 05:11:37;;;;;;;7.00;1.23;;;6.00;99.90;;;;;;4869066;29;20040;-86
2023/01/15 05:14:03;;;;;;;13.63;2.35;;;5.90;99.90;;;;;;4893736;29;20079;-85
2023/01/15 05:16:29;;;;;;;14.23;1.92;;;5.90;99.90;;;;;;4865036;29;20040;-85
2023/01/15 05:18:59;;;;;;;11.10;1.48;;;5.90;99.90;;;;;;4864337;29;20047;-85
2023/01/15 05:21:26;;;;;;;5.82;1.35;;;5.90;99.90;;;;;;4875039;29;20106;-85
2023/01/15 05:23:56;;;;;;;8.27;1.75;;;6.00;99.90;;;;;;4889461;29;20051;-85
2023/01/15 05:26:22;;;;;;;6.90;1.85;;;6.10;99.90;;;;;;4872860;29;20052;-84
2023/01/15 05:28:51;;;;;;;5.55;1.55;;;6.60;99.90;;;;;;4873412;29;20037;-85
2023/01/15 05:31:18;;;;;;;8.35;1.42;;;6.90;99.90;;;;;;4868916;29;20115;-85
2023/01/15 05:33:45;;;;;;;10.23;1.50;;;5.90;99.90;;;;;;4883102;29;20507;-85
2023/01/15 05:36:14;;;;;;;8.40;1.30;;;5.90;99.90;;;;;;4877732;29;20377;-85
2023/01/15 05:38:40;;;;;;;5.05;1.10;;;5.80;99.90;;;;;;4872489;29;20040;-85
2023/01/15 05:44:00;;;;;;;7.93;1.10;;;5.80;99.90;;;;;;4883731;29;20552;-85
2023/01/15 05:46:26;;;;;;;6.70;1.50;;;5.80;99.90;;;;;;4870972;29;20036;-85
2023/01/15 05:48:51;;;;;;;4.80;1.30;;;6.50;99.90;;;;;;4864876;29;20401;-86
2023/01/15 05:51:17;;;;;;;7.07;1.90;;;5.80;99.90;;;;;;4853254;29;20332;-86
2023/01/15 05:53:43;;;;;;;9.18;1.88;;;5.70;99.90;;;;;;4857487;29;20661;-84
2023/01/15 05:56:08;;;;;;;9.95;1.85;;;6.60;99.90;;;;;;4874224;29;20477;-84
2023/01/15 05:58:34;;;;;;;8.77;1.55;;;5.70;99.90;;;;;;4854208;29;20068;-84
2023/01/15 06:01:08;;;;;;;6.20;1.80;;;5.60;99.90;;;;;;4875020;29;20138;-83
2023/01/15 06:03:34;;;;;;;11.68;1.52;;;5.60;99.90;;;;;;4849584;29;20101;-83
2023/01/15 06:06:00;;;;;;;5.53;1.10;;;5.50;99.90;;;;;;4868162;29;20061;-84
2023/01/15 06:08:25;;;;;;;7.03;1.00;;;5.90;99.90;;;;;;4867676;29;20414;-84
2023/01/15 06:10:51;;;;;;;11.48;1.20;;;5.60;99.90;;;;;;4870384;29;20040;-84
2023/01/15 06:13:17;;;;;;;13.37;1.97;;;;;;;;;;4859911;29;20043;-83
2023/01/15 06:15:43;;;;;;;7.80;1.33;;;5.60;99.90;;;;;;4871138;29;20047;-84
2023/01/15 06:18:10;;;;;;;11.60;1.30;;;5.60;99.90;;;;;;4870813;29;20072;-84
2023/01/15 06:20:37;;;;;;;8.25;1.00;;;5.60;99.90;;;;;;4891427;29;20052;-84
2023/01/15 06:23:03;;;;;;;9.88;1.30;;;5.60;99.90;;;;;;4890531;29;20575;-83
2023/01/15 06:25:31;;;;;;;8.60;1.60;;;5.50;99.90;;;;;;4893777;29;20131;-84
2023/01/15 06:27:57;;;;;;;8.65;1.45;;;5.50;99.90;;;;;;4892885;29;20032;-84
2023/01/15 06:30:23;;;;;;;8.18;1.65;;;6.70;99.90;;;;;;4874829;29;20075;-84
2023/01/15 06:32:48;;;;;;;5.93;1.48;;;5.40;99.90;;;;;;4865851;29;20056;-84
2023/01/15 06:35:14;;;;;;;4.47;1.10;;;5.40;99.90;;;;;;4844748;29;20092;-83
2023/01/15 06:37:40;;;;;;;11.80;1.52;;;5.50;99.90;;;;;;4873372;29;20417;-84
2023/01/15 06:40:06;;;;;;;7.93;1.50;;;5.40;99.90;;;;;;4876973;29;20036;-84
2023/01/15 06:48:00;;;;;;;11.23;1.55;;;5.50;99.90;;;;;;4862021;29;20049;-84
2023/01/15 06:50:26;;;;;;;5.45;1.20;;;5.40;99.90;;;;;;4862374;29;20039;-84
2023/01/15 06:52:52;;;;;;;7.53;1.08;;;5.40;99.90;;;;;;4875251;29;20040;-84
2023/01/15 06:55:18;;;;;;;9.03;1.30;;;5.50;99.90;;;;;;4846629;29;20044;-83
2023/01/15 06:57:44;;;;;;;7.07;1.08;;;6.30;99.90;;;;;;4850636;29;20091;-84
2023/01/15 07:00:10;;;;;;;11.85;2.00;;;5.60;99.90;;;;;;4853632;29;20414;-84
2023/01/15 07:02:36;;;;;;;8.52;1.40;;;5.50;99.90;;;;;;4894243;29;20136;-84
2023/01/15 07:05:03;;;;;;;8.73;1.85;;;5.40;99.90;;;;;;4869249;29;20056;-84
2023/01/15 07:07:28;;;;;;;6.63;1.48;;;5.40;99.90;;;;;;4854787;29;20064;-84
2023/01/15 07:09:54;;;;;;;7.55;1.60;;;5.30;99.90;;;;;;4873072;29;20418;-84
2023/01/15 07:12:21;;;;;;;5.97;1.02;;;5.70;99.90;;;;;;4842745;29;20502;-84
2023/01/15 07:14:47;;;;;;;10.23;1.85;;;6.20;99.90;;;;;;4872628;29;20032;-84
2023/01/15 07:17:13;;;;;;;8.18;1.60;;;5.40;99.90;;;;;;4862497;29;20040;-84
2023/01/15 07:19:39;;;;;;;4.78;0.98;;;5.30;99.90;;;;;;4874618;29;20119;-84
2023/01/15 07:22:06;;;;;;;8.82;1.25;;;5.90;99.90;;;;;;4890438;29;20119;-84
2023/01/15 07:24:32;;;;;;;9.85;1.45;;;5.20;99.90;;;;;;4893520;29;20092;-84
2023/01/15 07:26:57;;;;;;;7.05;1.23;;;5.30;99.90;;;;;;4844504;29;20040;-84
2023/01/15 07:29:23;;;;;;;5.00;1.67;;;5.30;99.90;;;;;;4873687;29;20029;-84
2023/01/15 07:31:49;;;;;;;6.53;1.05;;;5.90;99.90;;;;;;4869601;29;20372;-84
2023/01/15 07:34:15;;;;;;;5.03;1.00;;;5.30;99.90;;;;;;4859188;29;20086;-84
2023/01/15 07:36:41;;;;;;;4.75;1.27;;;5.30;99.90;;;;;;4868738;29;20474;-84
2023/01/15 07:39:09;;;;;;;5.55;1.23;;;5.60;99.90;;;;;;4860652;29;20048;-84
2023/01/15 07:50:11;;;;;;;4.55;1.02;;;5.30;99.90;;;;;;4881921;29;20406;-84
2023/01/15 07:52:36;;;;;;;2.67;0.90;;;5.40;99.90;;;;;;4872593;29;20041;-84
2023/01/15 07:55:02;;;;;;;7.68;1.23;;;5.30;99.90;;;;;;4864721;29;20048;-82
2023/01/15 07:57:28;;;;;;;5.38;1.30;;;5.30;99.90;;;;;;4847699;29;21164;-82
2023/01/15 07:59:56;;;;;;;8.65;1.30;;;5.40;99.90;;;;;;4861205;29;20043;-82
2023/01/15 08:02:22;;;;;;;8.45;0.90;;;6.60;99.90;;;;;;4874529;29;20048;-82
2023/01/15 08:04:47;;;;;;;7.33;1.27;;;5.50;99.90;;;;;;4863010;29;20040;-83
2023/01/15 08:07:16;;;;;;;10.07;1.38;;;5.40;99.90;;;;;;4855233;29;20328;-84
2023/01/15 08:09:42;;;;;;;6.95;1.02;;;6.10;99.90;;;;;;4844254;29;20120;-85
2023/01/15 08:15:13;;;;;;;9.38;1.45;;;5.40;99.90;;;;;;4888712;29;20056;-84
2023/01/15 08:17:47;;;;;;;7.55;1.77;;;5.40;99.90;;;;;;4889773;29;20051;-82
2023/01/15 08:20:16;;;;;;;4.38;1.13;;;5.50;99.90;;;;;;4868213;29;20041;-83
2023/01/15 08:22:43;;;;;;;9.77;1.35;;;5.70;99.90;;;;;;4871210;29;20509;-83
2023/01/15 08:25:11;;;;;;;5.22;0.90;;;5.70;99.90;;;;;;4866569;29;20040;-83
2023/01/15 08:27:38;;;;;;;10.73;1.23;;;5.80;99.90;;;;;;4865395;29;20095;-83
2023/01/15 08:30:05;;;;;;;7.40;1.50;;;6.40;99.90;;;;;;4844670;29;20057;-83
2023/01/15 08:32:33;;;;;;;4.10;1.20;;;5.90;99.90;;;;;;4844623;29;20115;-83
2023/01/15 08:34:59;;;;;;;7.90;1.10;;;6.10;99.90;;;;;;4833137;29;20553;-83
2023/01/15 08:37:25;;;;;;;10.32;1.50;;;5.90;99.90;;;;;;4832603;29;20128;-83
2023/01/15 08:39:52;;;;;;;9.05;1.35;;;5.80;99.90;;;;;;4855619;29;20083;-83
2023/01/15 08:42:20;;;;;;;;;;;5.80;99.90;;;;;;4850910;29;20549;-83
2023/01/15 08:44:47;;;;;;;5.90;0.98;;;5.70;99.90;;;;;;4861380;29;19988;-83
2023/01/15 08:47:13;;;;;;;;;;;5.60;99.90;;;;;;4857327;29;20033;-83
2023/01/15 08:49:38;;;;;;;6.50;1.48;;;5.50;99.90;;;;;;4868795;29;19997;-83
2023/01/15 08:52:04;;;;;;;3.70;1.13;;;5.60;99.90;;;;;;4852281;29;20041;-83
2023/01/15 08:54:30;;;;;;;4.67;1.33;;;5.60;99.90;;;;;;4882808;29;20716;-83
2023/01/15 08:56:57;;;;;;;10.95;1.60;;;5.60;99.90;;;;;;4869513;29;20292;-83
2023/01/15 08:59:23;;;;;;;8.45;1.52;;;5.60;99.90;;;;;;4857098;29;20036;-83
2023/01/15 09:01:49;;;;;;;5.60;1.95;;;6.20;99.90;;;;;;4861775;29;20047;-83
2023/01/15 09:04:17;;;;;;;11.25;1.50;;;5.60;99.90;;;;;;4861952;29;20108;-83
2023/01/15 09:06:43;;;;;;;6.68;1.10;;;5.50;99.90;;;;;;4869003;29;20057;-86
2023/01/15 09:09:09;;;;;;;12.85;2.10;;;5.50;99.90;;;;;;4854110;29;20412;-83
2023/01/15 09:11:39;;;;;;;9.80;1.35;;;5.70;99.90;;;;;;4869435;29;20033;-83
2023/01/15 09:14:06;;;;;;;3.90;1.15;;;5.90;99.90;;;;;;4874933;29;20047;-82
2023/01/15 09:16:32;;;;;;;8.35;1.52;;;6.60;99.90;;;;;;4875139;29;20039;-83
2023/01/15 09:18:58;;;;;;;8.35;1.73;;;5.90;99.90;;;;;;4859569;29;20041;-83
2023/01/15 09:21:24;;;;;;;7.47;1.30;;;5.80;99.90;;;;;;4886255;29;20032;-82
2023/01/15 09:23:49;;;;;;;3.67;1.00;;;5.70;99.90;;;;;;4885751;29;20037;-83
2023/01/15 09:26:34;;;;;;;9.23;1.33;;;5.90;99.90;;;;;;4857432;29;20068;-84
2023/01/15 09:29:01;;;;;;;3.88;1.02;;;5.90;99.90;;;;;;4866837;29;20293;-84
2023/01/15 09:31:27;;;;;;;;;;;5.90;99.90;;;;;;4882327;29;20037;-83
2023/01/15 09:33:53;;;;;;;8.43;1.13;;;5.90;99.90;;;;;;4878231;29;19928;-83
2023/01/15 09:36:23;;;;;;;5.68;1.10;;;6.30;99.90;;;;;;4881504;29;20123;-83
2023/01/15 09:38:50;;;;;;;7.00;1.50;;;6.00;99.90;;;;;;4874988;29;20088;-83
2023/01/15 09:44:26;;;;;;;7.63;1.60;;;6.30;99.90;;;;;;4888125;29;20050;-84
2023/01/15 09:47:26;;;;;;;11.27;1.30;;;6.80;99.90;;;;;;4884992;29;20105;-83
2023/01/15 09:49:54;;;;;;;8.68;1.63;;;7.10;99.90;;;;;;4814752;29;20049;-82
2023/01/15 09:52:59;;;;;;;9.25;1.20;;;7.30;99.90;;;;;;4868466;29;20519;-83
2023/01/15 09:55:28;;;;;;;4.80;0.98;;;7.10;99.90;;;;;;4848580;29;20052;-82
2023/01/15 09:57:58;;;;;;;6.47;1.73;;;7.10;99.90;;;;;;4874869;29;20035;-84
2023/01/15 10:00:26;;;;;;;3.38;0.93;;;7.40;99.90;;;;;;4886179;29;20505;-82
2023/01/15 10:03:19;;;;;;;6.03;1.13;;;7.60;99.90;;;;;;4889659;29;20143;-82
2023/01/15 10:06:18;;;;;;;10.73;1.88;;;7.80;99.90;;;;;;4845999;29;20057;-83
2023/01/15 10:08:45;;;;;;;8.07;1.20;;;7.80;99.90;;;;;;4896332;29;20051;-83
2023/01/15 10:14:42;;;;;;;6.38;2.28;;;7.60;99.90;;;;;;4884190;29;20041;-83
2023/01/15 10:17:19;;;;;;;6.65;1.40;;;7.60;99.90;;;;;;4889793;29;20036;-84
2023/01/15 10:19:45;;;;;;;7.90;1.30;;;8.10;99.90;;;;;;4886237;29;20039;-83
2023/01/15 10:22:45;;;;;;;4.28;1.23;;;8.70;99.90;;;;;;4863659;29;20087;-82
2023/01/15 10:25:18;;;;;;;9.52;1.90;;;9.10;99.90;;;;;;4852920;29;20122;-81
2023/01/15 10:27:50;;;;;;;10.45;1.90;;;9.10;99.90;;;;;;4878123;29;20049;-81
2023/01/15 10:30:41;;;;;;;7.95;1.58;;;8.90;99.90;;;;;;4875920;29;20044;-82
2023/01/15 10:33:34;;;;;;;8.60;1.40;;;9.10;99.90;;;;;;4867967;29;20044;-83
2023/01/15 10:36:06;;;;;;;6.13;1.10;;;9.30;99.90;;;;;;4865884;29;20095;-82
2023/01/15 10:38:39;;;;;;;6.35;1.58;;;9.70;99.90;;;;;;4866079;29;20135;-82
2023/01/15 10:41:30;;;;;;;6.95;1.30;;;9.70;99.90;;;;;;4858642;29;20421;-83
2023/01/15 10:44:23;;;;;;;9.85;1.50;;;9.40;99.90;;;;;;4876394;29;20037;-82
2023/01/15 10:46:54;;;;;;;9.63;1.70;;;9.20;99.90;;;;;;4876761;29;20084;-81
2023/01/15 10:49:19;;;;;;;11.88;1.50;;;9.10;99.90;;;;;;4875909;29;20451;-83
2023/01/15 10:52:03;;;;;;;8.05;1.45;;;8.90;99.90;;;;;;4840843;29;20127;-83
2023/01/15 10:54:40;;;;;;;8.25;1.50;;;8.70;99.90;;;;;;4852617;29;20071;-81
2023/01/15 10:57:35;;;;;;;10.48;1.40;;;8.90;99.90;;;;;;4866195;29;20040;-82
2023/01/15 11:00:01;;;;;;;6.97;1.52;;;9.00;99.90;;;;;;4860565;29;20479;-82
2023/01/15 11:02:53;;;;;;;7.25;1.35;;;9.10;99.90;;;;;;4864079;29;20055;-82
2023/01/15 11:05:20;;;;;;;8.15;1.40;;;9.00;99.90;;;;;;4865455;29;20048;-83
2023/01/15 11:07:52;;;;;;;8.95;1.33;;;9.10;99.90;;;;;;4859173;29;20486;-83
2023/01/15 11:10:21;;;;;;;6.90;1.77;;;9.30;99.90;;;;;;4880856;29;20044;-84
2023/01/15 11:21:29;;;;;;;7.15;1.30;;;10.20;99.90;;;;;;4880903;29;20048;-80
2023/01/15 11:23:57;;;;;;;7.85;1.35;;;10.40;99.90;;;;;;4874180;29;20104;-84
2023/01/15 11:26:30;;;;;;;10.68;1.40;;;10.40;99.90;;;;;;4872205;29;20040;-82
2023/01/15 11:28:58;;;;;;;4.57;1.30;;;10.50;99.90;;;;;;4852564;29;20208;-82
2023/01/15 11:31:35;;;;;;;8.77;1.52;;;9.90;99.90;;;;;;4870302;29;20108;-81
2023/01/15 11:34:04;;;;;;;11.38;1.52;;;9.40;99.90;;;;;;4870705;29;20041;-82
2023/01/15 11:36:31;;;;;;;6.55;1.20;;;9.00;99.90;;;;;;4886171;29;20100;-83
2023/01/15 11:38:57;;;;;;;6.25;1.52;;;8.70;99.90;;;;;;4878704;29;20370;-82
2023/01/15 11:52:42;;;;;;;4.95;1.48;;;8.00;99.90;;;;;;4877202;29;20058;-83
2023/01/15 11:55:16;;;;;;;9.15;2.30;;;8.10;99.90;;;;;;4869978;29;20054;-84
2023/01/15 11:57:44;;;;;;;7.90;1.90;;;7.80;99.90;;;;;;4883950;29;20048;-84
2023/01/15 12:00:34;;;;;;;9.43;1.33;;;7.70;99.90;;;;;;4875333;29;20047;-83
2023/01/15 12:03:15;;;;;;;4.57;1.35;;;7.70;99.90;;;;;;4885658;29;20041;-83
2023/01/15 12:05:48;;;;;;;9.43;1.80;;;7.60;99.90;;;;;;4884766;29;20072;-83
2023/01/15 12:08:41;;;;;;;9.20;2.05;;;7.60;99.90;;;;;;4877494;29;20083;-83
2023/01/15 12:11:13;;;;;;;5.75;1.35;;;7.60;99.90;;;;;;4879095;29;20494;-84
2023/01/15 12:14:16;;;;;;;10.52;1.55;;;7.50;99.90;;;;;;4891567;29;20044;-84
2023/01/15 12:17:27;;;;;;;10.80;2.08;;;7.70;99.90;;;;;;4883738;29;20043;-83
2023/01/15 12:20:19;;;;;;;8.82;1.48;;;7.40;99.90;;;;;;4859233;29;20056;-84
2023/01/15 12:23:00;;;;;;;15.48;2.13;;;7.30;99.90;;;;;;4865196;29;20500;-84
2023/01/15 12:25:54;;;;;;;9.52;1.70;;;7.30;99.90;;;;;;4871363;29;20036;-84
2023/01/15 12:28:28;;;;;;;6.72;1.30;;;7.30;99.90;;;;;;4881042;29;20040;-84
2023/01/15 12:31:18;;;;;;;8.90;2.05;;;7.20;99.90;;;;;;4883645;29;20183;-85
2023/01/15 12:33:44;;;;;;;12.57;1.90;;;7.10;99.90;;;;;;4892322;29;20042;-83
2023/01/15 12:36:20;;;;;;;12.10;1.67;;;7.10;99.90;;;;;;4898470;29;20463;-84
2023/01/15 12:38:55;;;;;;;10.65;1.40;;;7.00;99.90;;;;;;4879109;29;20539;-82
2023/01/15 12:47:23;;;;;;;7.22;1.40;;;5.50;99.90;;;;;;4897202;29;20196;-81
2023/01/15 12:49:57;;;;;;;4.78;1.00;;;5.60;99.90;;;;;;4897640;29;20063;-81
2023/01/15 12:52:28;;;;;;;6.32;1.02;;;5.40;99.90;;;;;;4877745;29;20076;-82
2023/01/15 12:55:02;;;;;;;4.53;1.05;;;5.40;99.90;;;;;;4879897;29;20032;-81
2023/01/15 12:57:36;;;;;;;8.27;1.35;;;5.40;99.90;;;;;;4878830;29;20092;-82
2023/01/15 13:00:08;;;;;;;5.35;0.90;;;5.40;99.90;;;;;;4878622;29;20048;-82
2023/01/15 13:02:39;;;;;;;5.40;1.00;;;5.40;99.90;;;;;;4890503;29;20059;-82
2023/01/15 13:05:29;;;;;;;5.50;1.10;;;5.40;99.90;;;;;;4888585;29;20413;-82
2023/01/15 13:08:01;;;;;;;6.93;0.88;;;5.40;99.90;;;;;;4895517;29;20052;-84
2023/01/15 13:10:33;;;;;;;3.20;0.98;;;5.40;99.90;;;;;;4882779;29;20397;-83
2023/01/15 13:13:18;;;;;;;2.88;0.80;;;5.50;99.90;;;;;;4880609;29;20044;-83
2023/01/15 13:16:09;;;;;;;4.80;0.93;;;5.50;99.90;;;;;;4868381;29;20087;-83
2023/01/15 13:18:59;;;;;;;1.80;0.70;;;5.50;99.90;;;;;;4862660;29;20597;-83
2023/01/15 13:21:29;;;;;;;4.03;0.90;;;5.60;99.90;;;;;;4863522;29;20153;-83
2023/01/15 13:24:23;;;;;;;3.65;0.75;;;5.60;99.90;;;;;;4878841;29;20040;-84
2023/01/15 13:27:09;;;;;;;2.00;0.70;;;5.60;99.90;;;;;;4863640;29;20120;-83
2023/01/15 13:29:57;;;;;;;3.77;0.73;;;5.60;99.90;;;;;;4878937;29;20044;-83
2023/01/15 13:32:31;;;;;;;3.42;0.80;;;5.60;99.90;;;;;;4873322;29;20039;-84
2023/01/15 13:35:13;;;;;;;4.32;0.77;;;5.60;99.90;;;;;;4875823;29;20171;-83
2023/01/15 13:37:45;;;;;;;3.30;0.80;;;5.60;99.90;;;;;;4885447;29;20040;-84
2023/01/15 13:40:27;;;;;;;5.40;0.90;;;5.60;99.90;;;;;;4865895;29;20045;-84
2023/01/15 13:42:53;;;;;;;6.07;0.90;;;5.70;99.90;;;;;;4871055;29;20036;-84
2023/01/15 13:45:41;;;;;;;2.00;0.80;;;5.60;99.90;;;;;;4896427;29;20126;-84
2023/01/15 13:48:14;;;;;;;;;;;5.60;99.90;;;;;;4874762;29;20409;-84
2023/01/15 13:50:58;;;;;;;7.72;1.10;;;5.70;99.90;;;;;;4883392;29;20292;-84
2023/01/15 13:53:28;;;;;;;6.60;1.00;;;5.70;99.90;;;;;;4869830;29;20127;-83
2023/01/15 13:55:58;;;;;;;7.10;1.30;;;5.70;99.90;;;;;;4897462;29;20044;-84
2023/01/15 13:58:29;;;;;;;8.20;1.30;;;5.70;99.90;;;;;;4883207;29;20037;-83
2023/01/15 14:01:30;;;;;;;8.32;1.65;;;5.70;99.90;;;;;;4882045;29;20497;-83
2023/01/15 14:04:09;;;;;;;6.32;1.02;;;5.70;99.90;;;;;;4867022;29;20056;-83
2023/01/15 14:06:44;;;;;;;4.18;0.90;;;5.70;99.90;;;;;;4896537;29;20060;-83
2023/01/15 14:09:19;;;;;;;5.15;0.95;;;5.70;99.90;;;;;;4888563;29;20129;-83
2023/01/15 14:11:53;;;;;;;5.35;1.10;;;5.70;99.90;;;;;;4886649;29;20032;-83
2023/01/15 14:14:31;;;;;;;13.43;1.50;;;5.80;99.90;;;;;;4865431;29;20037;-82
2023/01/15 14:17:12;;;;;;;5.78;1.00;;;5.70;99.90;;;;;;4878505;29;20076;-81
2023/01/15 14:20:00;;;;;;;7.03;1.30;;;5.70;99.90;;;;;;4877985;29;20075;-82
2023/01/15 14:22:44;;;;;;;11.93;1.58;;;5.70;99.90;;;;;;4877963;29;20036;-82